sensor_id;sensor_type;location;lat;lon;timestamp;P1;durP1;ratioP1;P2;durP2;ratioP2
35056;SDS011;21241;51.828;19.574;2023-03-19T00:00:30;24.30;;;21.90;;
35056;SDS011;21241;51.828;19.574;2023-03-19T00:03:17;27.40;;;24.70;;
35056;SDS011;21241;51.828;19.574;2023-03-19T00:05:52;24.80;;;22.20;;
35056;SDS011;21241;51.828;19.574;2023-03-19T00:08:20;23.70;;;21.40;;
35056;SDS011;21241;51.828;19.574;2023-03-19T00:10:49;23.80;;;20.90;;
35056;SDS011;21241;51.828;19.574;2023-03-19T00:13:17;23.80;;;21.60;;
35056;SDS011;21241;51.828;19.574;2023-03-19T00:15:45;23.00;;;20.90;;
35056;SDS011;21241;51.828;19.574;2023-03-19T00:18:16;23.10;;;20.40;;
35056;SDS011;21241;51.828;19.574;2023-03-19T00:20:43;23.40;;;20.90;;
35056;SDS011;21241;51.828;19.574;2023-03-19T00:23:12;23.70;;;21.50;;
35056;SDS011;21241;51.828;19.574;2023-03-19T00:25:39;22.00;;;19.90;;
35056;SDS011;21241;51.828;19.574;2023-03-19T00:28:07;21.70;;;19.70;;
35056;SDS011;21241;51.828;19.574;2023-03-19T00:30:36;22.50;;;20.20;;
35056;SDS011;21241;51.828;19.574;2023-03-19T00:33:04;21.40;;;19.30;;
35056;SDS011;21241;51.828;19.574;2023-03-19T00:35:31;22.20;;;20.10;;
35056;SDS011;21241;51.828;19.574;2023-03-19T00:38:00;21.00;;;19.00;;
35056;SDS011;21241;51.828;19.574;2023-03-19T00:40:30;20.40;;;18.40;;
35056;SDS011;21241;51.828;19.574;2023-03-19T00:42:59;21.60;;;19.50;;
35056;SDS011;21241;51.828;19.574;2023-03-19T00:45:27;21.70;;;19.60;;
35056;SDS011;21241;51.828;19.574;2023-03-19T00:47:57;21.70;;;19.70;;
35056;SDS011;21241;51.828;19.574;2023-03-19T00:50:25;21.40;;;19.30;;
35056;SDS011;21241;51.828;19.574;2023-03-19T00:52:53;20.90;;;18.90;;
35056;SDS011;21241;51.828;19.574;2023-03-19T00:55:21;21.90;;;19.30;;
35056;SDS011;21241;51.828;19.574;2023-03-19T00:57:49;22.40;;;20.00;;
35056;SDS011;21241;51.828;19.574;2023-03-19T01:00:17;21.90;;;19.70;;
35056;SDS011;21241;51.828;19.574;2023-03-19T01:02:46;21.10;;;19.10;;
35056;SDS011;21241;51.828;19.574;2023-03-19T01:05:14;21.00;;;19.00;;
35056;SDS011;21241;51.828;19.574;2023-03-19T01:07:42;21.40;;;19.30;;
35056;SDS011;21241;51.828;19.574;2023-03-19T01:10:09;21.60;;;19.60;;
35056;SDS011;21241;51.828;19.574;2023-03-19T01:12:37;20.60;;;18.50;;
35056;SDS011;21241;51.828;19.574;2023-03-19T01:15:05;20.30;;;18.40;;
35056;SDS011;21241;51.828;19.574;2023-03-19T01:17:35;21.10;;;19.00;;
35056;SDS011;21241;51.828;19.574;2023-03-19T01:20:03;20.90;;;18.80;;
35056;SDS011;21241;51.828;19.574;2023-03-19T01:22:35;21.20;;;19.00;;
35056;SDS011;21241;51.828;19.574;2023-03-19T01:25:04;21.80;;;19.50;;
35056;SDS011;21241;51.828;19.574;2023-03-19T01:27:32;22.20;;;20.10;;
35056;SDS011;21241;51.828;19.574;2023-03-19T01:30:00;21.90;;;19.80;;
35056;SDS011;21241;51.828;19.574;2023-03-19T01:32:57;22.10;;;19.90;;
35056;SDS011;21241;51.828;19.574;2023-03-19T01:35:37;22.70;;;20.40;;
35056;SDS011;21241;51.828;19.574;2023-03-19T01:38:06;21.70;;;19.70;;
35056;SDS011;21241;51.828;19.574;2023-03-19T01:40:34;23.30;;;21.00;;
35056;SDS011;21241;51.828;19.574;2023-03-19T01:43:46;23.00;;;20.90;;
35056;SDS011;21241;51.828;19.574;2023-03-19T01:46:04;23.80;;;21.30;;
35056;SDS011;21241;51.828;19.574;2023-03-19T01:48:38;21.80;;;19.70;;
35056;SDS011;21241;51.828;19.574;2023-03-19T01:51:14;23.80;;;21.50;;
35056;SDS011;21241;51.828;19.574;2023-03-19T01:53:58;22.90;;;20.60;;
35056;SDS011;21241;51.828;19.574;2023-03-19T01:56:34;23.30;;;20.90;;
35056;SDS011;21241;51.828;19.574;2023-03-19T01:59:16;21.60;;;19.60;;
35056;SDS011;21241;51.828;19.574;2023-03-19T02:02:12;22.00;;;19.80;;
35056;SDS011;21241;51.828;19.574;2023-03-19T02:04:44;21.90;;;19.80;;
35056;SDS011;21241;51.828;19.574;2023-03-19T02:07:13;21.50;;;19.50;;
35056;SDS011;21241;51.828;19.574;2023-03-19T02:09:41;22.50;;;20.30;;
35056;SDS011;21241;51.828;19.574;2023-03-19T02:12:09;20.40;;;18.40;;
35056;SDS011;21241;51.828;19.574;2023-03-19T02:14:38;21.40;;;19.40;;
35056;SDS011;21241;51.828;19.574;2023-03-19T02:17:05;20.20;;;18.30;;
35056;SDS011;21241;51.828;19.574;2023-03-19T02:22:22;21.10;;;19.10;;
35056;SDS011;21241;51.828;19.574;2023-03-19T02:24:55;21.10;;;19.10;;
35056;SDS011;21241;51.828;19.574;2023-03-19T02:27:34;20.40;;;18.50;;
35056;SDS011;21241;51.828;19.574;2023-03-19T02:30:18;20.30;;;18.30;;
35056;SDS011;21241;51.828;19.574;2023-03-19T02:32:54;20.40;;;18.30;;
35056;SDS011;21241;51.828;19.574;2023-03-19T02:35:24;19.50;;;17.50;;
35056;SDS011;21241;51.828;19.574;2023-03-19T02:37:52;19.50;;;17.80;;
35056;SDS011;21241;51.828;19.574;2023-03-19T02:40:21;19.10;;;17.20;;
35056;SDS011;21241;51.828;19.574;2023-03-19T02:42:51;19.40;;;17.60;;
35056;SDS011;21241;51.828;19.574;2023-03-19T02:45:19;19.80;;;18.00;;
35056;SDS011;21241;51.828;19.574;2023-03-19T02:47:47;21.20;;;17.90;;
35056;SDS011;21241;51.828;19.574;2023-03-19T02:50:15;19.30;;;17.40;;
35056;SDS011;21241;51.828;19.574;2023-03-19T02:52:43;18.90;;;17.10;;
35056;SDS011;21241;51.828;19.574;2023-03-19T02:55:10;18.90;;;17.10;;
35056;SDS011;21241;51.828;19.574;2023-03-19T02:57:38;18.40;;;16.70;;
35056;SDS011;21241;51.828;19.574;2023-03-19T03:00:06;19.10;;;17.30;;
35056;SDS011;21241;51.828;19.574;2023-03-19T03:02:34;20.50;;;18.50;;
35056;SDS011;21241;51.828;19.574;2023-03-19T03:05:02;19.90;;;18.00;;
35056;SDS011;21241;51.828;19.574;2023-03-19T03:07:30;20.00;;;18.10;;
35056;SDS011;21241;51.828;19.574;2023-03-19T03:09:58;19.30;;;17.50;;
35056;SDS011;21241;51.828;19.574;2023-03-19T03:12:26;18.60;;;16.90;;
35056;SDS011;21241;51.828;19.574;2023-03-19T03:14:53;20.00;;;18.00;;
35056;SDS011;21241;51.828;19.574;2023-03-19T03:17:21;20.50;;;18.60;;
35056;SDS011;21241;51.828;19.574;2023-03-19T03:19:49;19.80;;;18.00;;
35056;SDS011;21241;51.828;19.574;2023-03-19T03:22:17;21.90;;;19.80;;
35056;SDS011;21241;51.828;19.574;2023-03-19T03:24:45;20.60;;;18.40;;
35056;SDS011;21241;51.828;19.574;2023-03-19T03:27:12;22.20;;;20.10;;
35056;SDS011;21241;51.828;19.574;2023-03-19T03:29:40;22.50;;;20.40;;
35056;SDS011;21241;51.828;19.574;2023-03-19T03:32:08;22.30;;;20.20;;
35056;SDS011;21241;51.828;19.574;2023-03-19T03:34:36;22.30;;;20.30;;
35056;SDS011;21241;51.828;19.574;2023-03-19T03:37:03;20.80;;;18.90;;
35056;SDS011;21241;51.828;19.574;2023-03-19T03:39:31;21.90;;;19.90;;
35056;SDS011;21241;51.828;19.574;2023-03-19T03:41:59;22.10;;;20.00;;
35056;SDS011;21241;51.828;19.574;2023-03-19T03:44:29;22.80;;;20.40;;
35056;SDS011;21241;51.828;19.574;2023-03-19T03:46:57;21.90;;;19.80;;
35056;SDS011;21241;51.828;19.574;2023-03-19T03:49:25;22.00;;;19.90;;
35056;SDS011;21241;51.828;19.574;2023-03-19T03:51:52;22.60;;;20.30;;
35056;SDS011;21241;51.828;19.574;2023-03-19T03:54:20;20.80;;;18.80;;
35056;SDS011;21241;51.828;19.574;2023-03-19T03:56:48;20.60;;;18.70;;
35056;SDS011;21241;51.828;19.574;2023-03-19T03:59:17;19.80;;;17.90;;
35056;SDS011;21241;51.828;19.574;2023-03-19T04:01:44;22.30;;;20.20;;
35056;SDS011;21241;51.828;19.574;2023-03-19T04:04:12;21.60;;;19.50;;
35056;SDS011;21241;51.828;19.574;2023-03-19T04:06:40;20.40;;;18.50;;
35056;SDS011;21241;51.828;19.574;2023-03-19T04:09:12;20.40;;;18.40;;
35056;SDS011;21241;51.828;19.574;2023-03-19T04:11:40;19.90;;;18.10;;
35056;SDS011;21241;51.828;19.574;2023-03-19T04:14:08;20.40;;;18.60;;
35056;SDS011;21241;51.828;19.574;2023-03-19T04:16:36;19.80;;;17.90;;
35056;SDS011;21241;51.828;19.574;2023-03-19T04:19:04;20.10;;;18.20;;
35056;SDS011;21241;51.828;19.574;2023-03-19T04:21:34;19.40;;;17.50;;
35056;SDS011;21241;51.828;19.574;2023-03-19T04:24:02;19.00;;;17.20;;
35056;SDS011;21241;51.828;19.574;2023-03-19T04:26:30;19.10;;;17.20;;
35056;SDS011;21241;51.828;19.574;2023-03-19T04:28:58;19.00;;;17.20;;
35056;SDS011;21241;51.828;19.574;2023-03-19T04:31:26;18.80;;;17.00;;
35056;SDS011;21241;51.828;19.574;2023-03-19T04:33:54;19.20;;;17.30;;
35056;SDS011;21241;51.828;19.574;2023-03-19T04:36:22;19.00;;;17.20;;
35056;SDS011;21241;51.828;19.574;2023-03-19T04:38:50;19.40;;;17.60;;
35056;SDS011;21241;51.828;19.574;2023-03-19T04:41:19;18.50;;;16.70;;
35056;SDS011;21241;51.828;19.574;2023-03-19T04:44:00;18.50;;;16.60;;
35056;SDS011;21241;51.828;19.574;2023-03-19T04:46:28;17.90;;;16.10;;
35056;SDS011;21241;51.828;19.574;2023-03-19T04:48:56;18.10;;;16.40;;
35056;SDS011;21241;51.828;19.574;2023-03-19T04:51:24;16.90;;;15.40;;
35056;SDS011;21241;51.828;19.574;2023-03-19T04:53:51;18.00;;;16.30;;
35056;SDS011;21241;51.828;19.574;2023-03-19T04:56:19;16.30;;;14.70;;
35056;SDS011;21241;51.828;19.574;2023-03-19T04:58:47;17.30;;;15.80;;
35056;SDS011;21241;51.828;19.574;2023-03-19T05:01:15;17.40;;;15.70;;
35056;SDS011;21241;51.828;19.574;2023-03-19T05:03:57;17.80;;;16.10;;
35056;SDS011;21241;51.828;19.574;2023-03-19T05:06:25;15.80;;;14.30;;
35056;SDS011;21241;51.828;19.574;2023-03-19T05:08:54;17.00;;;15.50;;
35056;SDS011;21241;51.828;19.574;2023-03-19T05:11:22;17.10;;;15.60;;
35056;SDS011;21241;51.828;19.574;2023-03-19T05:13:57;16.60;;;15.00;;
35056;SDS011;21241;51.828;19.574;2023-03-19T05:16:28;17.10;;;15.50;;
35056;SDS011;21241;51.828;19.574;2023-03-19T05:18:57;16.30;;;14.80;;
35056;SDS011;21241;51.828;19.574;2023-03-19T05:21:25;16.50;;;15.00;;
35056;SDS011;21241;51.828;19.574;2023-03-19T05:23:53;16.90;;;15.40;;
35056;SDS011;21241;51.828;19.574;2023-03-19T05:26:23;16.70;;;15.10;;
35056;SDS011;21241;51.828;19.574;2023-03-19T05:29:12;16.80;;;15.40;;
35056;SDS011;21241;51.828;19.574;2023-03-19T05:31:51;17.40;;;15.80;;
35056;SDS011;21241;51.828;19.574;2023-03-19T05:34:19;17.40;;;15.80;;
35056;SDS011;21241;51.828;19.574;2023-03-19T05:36:48;17.70;;;15.50;;
35056;SDS011;21241;51.828;19.574;2023-03-19T05:39:18;17.90;;;16.30;;
35056;SDS011;21241;51.828;19.574;2023-03-19T05:41:46;17.60;;;16.00;;
35056;SDS011;21241;51.828;19.574;2023-03-19T05:44:18;18.00;;;16.10;;
35056;SDS011;21241;51.828;19.574;2023-03-19T05:47:12;18.60;;;16.80;;
35056;SDS011;21241;51.828;19.574;2023-03-19T05:49:41;19.40;;;17.60;;
35056;SDS011;21241;51.828;19.574;2023-03-19T05:52:09;18.30;;;16.60;;
35056;SDS011;21241;51.828;19.574;2023-03-19T05:54:37;17.50;;;15.90;;
35056;SDS011;21241;51.828;19.574;2023-03-19T05:57:13;18.10;;;16.50;;
35056;SDS011;21241;51.828;19.574;2023-03-19T05:59:48;18.70;;;17.00;;
35056;SDS011;21241;51.828;19.574;2023-03-19T06:02:40;19.20;;;17.40;;
35056;SDS011;21241;51.828;19.574;2023-03-19T06:05:28;18.60;;;16.90;;
35056;SDS011;21241;51.828;19.574;2023-03-19T06:08:00;17.80;;;16.10;;
35056;SDS011;21241;51.828;19.574;2023-03-19T06:10:34;17.90;;;16.30;;
35056;SDS011;21241;51.828;19.574;2023-03-19T06:13:06;19.00;;;17.20;;
35056;SDS011;21241;51.828;19.574;2023-03-19T06:16:00;18.40;;;16.80;;
35056;SDS011;21241;51.828;19.574;2023-03-19T06:18:35;18.00;;;16.40;;
35056;SDS011;21241;51.828;19.574;2023-03-19T06:21:07;18.40;;;16.70;;
35056;SDS011;21241;51.828;19.574;2023-03-19T06:23:35;17.40;;;15.90;;
35056;SDS011;21241;51.828;19.574;2023-03-19T06:26:04;17.40;;;15.80;;
35056;SDS011;21241;51.828;19.574;2023-03-19T06:28:39;17.30;;;15.80;;
35056;SDS011;21241;51.828;19.574;2023-03-19T06:31:07;17.90;;;16.30;;
35056;SDS011;21241;51.828;19.574;2023-03-19T06:33:54;17.10;;;15.60;;
35056;SDS011;21241;51.828;19.574;2023-03-19T06:36:25;16.90;;;15.30;;
35056;SDS011;21241;51.828;19.574;2023-03-19T06:38:53;17.50;;;15.90;;
35056;SDS011;21241;51.828;19.574;2023-03-19T06:41:21;17.80;;;16.30;;
35056;SDS011;21241;51.828;19.574;2023-03-19T06:43:51;16.30;;;14.90;;
35056;SDS011;21241;51.828;19.574;2023-03-19T06:46:19;16.40;;;15.10;;
35056;SDS011;21241;51.828;19.574;2023-03-19T06:48:47;16.50;;;15.00;;
35056;SDS011;21241;51.828;19.574;2023-03-19T06:51:15;16.90;;;15.30;;
35056;SDS011;21241;51.828;19.574;2023-03-19T06:53:43;16.60;;;15.20;;
35056;SDS011;21241;51.828;19.574;2023-03-19T06:56:11;16.20;;;14.80;;
35056;SDS011;21241;51.828;19.574;2023-03-19T06:58:39;16.60;;;15.10;;
35056;SDS011;21241;51.828;19.574;2023-03-19T07:01:07;17.60;;;16.00;;
35056;SDS011;21241;51.828;19.574;2023-03-19T07:03:35;15.60;;;14.10;;
35056;SDS011;21241;51.828;19.574;2023-03-19T07:06:03;16.90;;;15.40;;
35056;SDS011;21241;51.828;19.574;2023-03-19T07:08:31;17.20;;;15.60;;
35056;SDS011;21241;51.828;19.574;2023-03-19T07:11:03;17.00;;;15.50;;
35056;SDS011;21241;51.828;19.574;2023-03-19T07:13:32;17.20;;;15.70;;
35056;SDS011;21241;51.828;19.574;2023-03-19T07:16:00;16.90;;;15.40;;
35056;SDS011;21241;51.828;19.574;2023-03-19T07:18:28;18.10;;;16.50;;
35056;SDS011;21241;51.828;19.574;2023-03-19T07:20:56;17.70;;;16.20;;
35056;SDS011;21241;51.828;19.574;2023-03-19T07:23:24;19.50;;;17.60;;
35056;SDS011;21241;51.828;19.574;2023-03-19T07:25:52;17.20;;;15.80;;
35056;SDS011;21241;51.828;19.574;2023-03-19T07:28:20;18.80;;;17.10;;
35056;SDS011;21241;51.828;19.574;2023-03-19T07:30:50;18.90;;;17.30;;
35056;SDS011;21241;51.828;19.574;2023-03-19T07:33:20;18.70;;;17.10;;
35056;SDS011;21241;51.828;19.574;2023-03-19T07:35:48;17.90;;;16.30;;
35056;SDS011;21241;51.828;19.574;2023-03-19T07:38:16;18.20;;;16.60;;
35056;SDS011;21241;51.828;19.574;2023-03-19T07:40:44;20.80;;;18.90;;
35056;SDS011;21241;51.828;19.574;2023-03-19T07:43:29;18.00;;;16.50;;
35056;SDS011;21241;51.828;19.574;2023-03-19T07:45:58;19.20;;;17.30;;
35056;SDS011;21241;51.828;19.574;2023-03-19T07:48:26;15.70;;;14.20;;
35056;SDS011;21241;51.828;19.574;2023-03-19T07:50:54;17.50;;;16.00;;
35056;SDS011;21241;51.828;19.574;2023-03-19T07:53:22;17.60;;;16.10;;
35056;SDS011;21241;51.828;19.574;2023-03-19T07:55:50;17.00;;;15.60;;
35056;SDS011;21241;51.828;19.574;2023-03-19T07:58:17;16.50;;;14.90;;
35056;SDS011;21241;51.828;19.574;2023-03-19T08:00:45;16.90;;;15.30;;
35056;SDS011;21241;51.828;19.574;2023-03-19T08:03:14;17.90;;;16.20;;
35056;SDS011;21241;51.828;19.574;2023-03-19T08:05:42;16.50;;;15.10;;
35056;SDS011;21241;51.828;19.574;2023-03-19T08:08:10;17.00;;;15.60;;
35056;SDS011;21241;51.828;19.574;2023-03-19T08:10:37;17.30;;;15.70;;
35056;SDS011;21241;51.828;19.574;2023-03-19T08:13:06;16.90;;;15.50;;
35056;SDS011;21241;51.828;19.574;2023-03-19T08:15:34;16.90;;;15.40;;
35056;SDS011;21241;51.828;19.574;2023-03-19T08:18:02;17.50;;;15.90;;
35056;SDS011;21241;51.828;19.574;2023-03-19T08:20:31;18.00;;;16.40;;
35056;SDS011;21241;51.828;19.574;2023-03-19T08:23:00;16.50;;;15.10;;
35056;SDS011;21241;51.828;19.574;2023-03-19T08:25:27;18.70;;;17.10;;
35056;SDS011;21241;51.828;19.574;2023-03-19T08:27:59;16.50;;;15.10;;
35056;SDS011;21241;51.828;19.574;2023-03-19T08:30:27;16.50;;;15.10;;
35056;SDS011;21241;51.828;19.574;2023-03-19T08:32:55;18.50;;;16.90;;
35056;SDS011;21241;51.828;19.574;2023-03-19T08:35:23;15.60;;;14.30;;
35056;SDS011;21241;51.828;19.574;2023-03-19T08:37:53;17.30;;;15.70;;
35056;SDS011;21241;51.828;19.574;2023-03-19T08:40:22;15.80;;;14.40;;
35056;SDS011;21241;51.828;19.574;2023-03-19T08:42:50;17.50;;;15.90;;
35056;SDS011;21241;51.828;19.574;2023-03-19T08:45:18;17.00;;;15.50;;
35056;SDS011;21241;51.828;19.574;2023-03-19T08:47:47;15.20;;;13.70;;
35056;SDS011;21241;51.828;19.574;2023-03-19T08:50:15;15.50;;;14.10;;
35056;SDS011;21241;51.828;19.574;2023-03-19T08:52:43;14.50;;;13.10;;
35056;SDS011;21241;51.828;19.574;2023-03-19T08:55:11;13.90;;;12.70;;
35056;SDS011;21241;51.828;19.574;2023-03-19T08:57:39;14.80;;;13.60;;
35056;SDS011;21241;51.828;19.574;2023-03-19T09:00:07;15.30;;;13.90;;
35056;SDS011;21241;51.828;19.574;2023-03-19T09:02:36;15.40;;;14.00;;
35056;SDS011;21241;51.828;19.574;2023-03-19T09:05:05;14.70;;;13.40;;
35056;SDS011;21241;51.828;19.574;2023-03-19T09:07:33;15.30;;;14.00;;
35056;SDS011;21241;51.828;19.574;2023-03-19T09:10:01;13.90;;;12.80;;
35056;SDS011;21241;51.828;19.574;2023-03-19T09:12:29;13.70;;;12.60;;
35056;SDS011;21241;51.828;19.574;2023-03-19T09:14:57;14.80;;;13.40;;
35056;SDS011;21241;51.828;19.574;2023-03-19T09:17:24;14.30;;;13.10;;
35056;SDS011;21241;51.828;19.574;2023-03-19T09:19:52;14.70;;;13.50;;
35056;SDS011;21241;51.828;19.574;2023-03-19T09:22:20;15.10;;;13.70;;
35056;SDS011;21241;51.828;19.574;2023-03-19T09:24:48;14.00;;;12.70;;
35056;SDS011;21241;51.828;19.574;2023-03-19T09:27:16;12.80;;;11.60;;
35056;SDS011;21241;51.828;19.574;2023-03-19T09:29:43;14.70;;;13.30;;
35056;SDS011;21241;51.828;19.574;2023-03-19T09:32:11;15.10;;;13.80;;
35056;SDS011;21241;51.828;19.574;2023-03-19T09:34:39;14.00;;;12.80;;
35056;SDS011;21241;51.828;19.574;2023-03-19T09:37:07;14.80;;;13.60;;
35056;SDS011;21241;51.828;19.574;2023-03-19T09:39:34;14.00;;;12.80;;
35056;SDS011;21241;51.828;19.574;2023-03-19T09:44:58;20.10;;;18.40;;
35056;SDS011;21241;51.828;19.574;2023-03-19T09:47:27;12.70;;;11.60;;
35056;SDS011;21241;51.828;19.574;2023-03-19T09:50:00;14.50;;;13.30;;
35056;SDS011;21241;51.828;19.574;2023-03-19T09:58:09;14.70;;;13.40;;
35056;SDS011;21241;51.828;19.574;2023-03-19T10:00:41;18.00;;;16.20;;
35056;SDS011;21241;51.828;19.574;2023-03-19T10:13:37;13.60;;;12.40;;
35056;SDS011;21241;51.828;19.574;2023-03-19T10:16:12;13.40;;;12.20;;
35056;SDS011;21241;51.828;19.574;2023-03-19T10:18:43;12.70;;;11.60;;
35056;SDS011;21241;51.828;19.574;2023-03-19T10:21:16;12.70;;;11.70;;
35056;SDS011;21241;51.828;19.574;2023-03-19T10:26:25;12.40;;;11.40;;
35056;SDS011;21241;51.828;19.574;2023-03-19T10:31:27;13.20;;;11.90;;
35056;SDS011;21241;51.828;19.574;2023-03-19T10:33:57;13.30;;;12.20;;
35056;SDS011;21241;51.828;19.574;2023-03-19T10:36:33;12.60;;;11.50;;
35056;SDS011;21241;51.828;19.574;2023-03-19T10:39:02;12.40;;;11.40;;
35056;SDS011;21241;51.828;19.574;2023-03-19T10:44:11;12.60;;;11.60;;
35056;SDS011;21241;51.828;19.574;2023-03-19T10:46:43;12.30;;;11.30;;
35056;SDS011;21241;51.828;19.574;2023-03-19T10:49:11;12.00;;;11.00;;
35056;SDS011;21241;51.828;19.574;2023-03-19T10:51:42;13.20;;;12.10;;
35056;SDS011;21241;51.828;19.574;2023-03-19T10:54:21;11.40;;;10.50;;
35056;SDS011;21241;51.828;19.574;2023-03-19T10:56:50;12.10;;;11.00;;
35056;SDS011;21241;51.828;19.574;2023-03-19T10:59:23;11.90;;;10.90;;
35056;SDS011;21241;51.828;19.574;2023-03-19T11:01:57;11.80;;;10.90;;
35056;SDS011;21241;51.828;19.574;2023-03-19T11:04:26;12.20;;;11.20;;
35056;SDS011;21241;51.828;19.574;2023-03-19T11:07:00;12.00;;;11.10;;
35056;SDS011;21241;51.828;19.574;2023-03-19T11:09:33;11.10;;;10.20;;
35056;SDS011;21241;51.828;19.574;2023-03-19T11:12:19;11.30;;;10.50;;
35056;SDS011;21241;51.828;19.574;2023-03-19T11:14:52;10.60;;;9.80;;
35056;SDS011;21241;51.828;19.574;2023-03-19T11:17:36;11.10;;;10.10;;
35056;SDS011;21241;51.828;19.574;2023-03-19T11:22:42;11.20;;;10.30;;
35056;SDS011;21241;51.828;19.574;2023-03-19T11:25:15;11.60;;;10.50;;
35056;SDS011;21241;51.828;19.574;2023-03-19T11:28:28;12.30;;;11.10;;
35056;SDS011;21241;51.828;19.574;2023-03-19T11:33:56;12.10;;;11.20;;
35056;SDS011;21241;51.828;19.574;2023-03-19T11:47:57;11.60;;;10.70;;
35056;SDS011;21241;51.828;19.574;2023-03-19T11:53:30;11.30;;;10.40;;
35056;SDS011;21241;51.828;19.574;2023-03-19T11:56:13;10.80;;;10.00;;
35056;SDS011;21241;51.828;19.574;2023-03-19T12:04:52;9.30;;;8.60;;
35056;SDS011;21241;51.828;19.574;2023-03-19T12:13:11;9.60;;;8.90;;
35056;SDS011;21241;51.828;19.574;2023-03-19T12:15:50;9.10;;;8.40;;
35056;SDS011;21241;51.828;19.574;2023-03-19T12:18:31;9.40;;;8.70;;
35056;SDS011;21241;51.828;19.574;2023-03-19T12:21:21;9.90;;;9.00;;
35056;SDS011;21241;51.828;19.574;2023-03-19T12:35:15;9.50;;;8.80;;
35056;SDS011;21241;51.828;19.574;2023-03-19T12:40:38;9.30;;;8.60;;
35056;SDS011;21241;51.828;19.574;2023-03-19T12:43:16;9.90;;;9.00;;
35056;SDS011;21241;51.828;19.574;2023-03-19T12:46:11;9.60;;;8.80;;
35056;SDS011;21241;51.828;19.574;2023-03-19T12:48:43;9.00;;;8.30;;
35056;SDS011;21241;51.828;19.574;2023-03-19T12:51:14;9.40;;;8.70;;
35056;SDS011;21241;51.828;19.574;2023-03-19T12:53:51;9.50;;;8.70;;
35056;SDS011;21241;51.828;19.574;2023-03-19T12:56:26;9.90;;;8.90;;
35056;SDS011;21241;51.828;19.574;2023-03-19T12:59:01;9.60;;;8.80;;
35056;SDS011;21241;51.828;19.574;2023-03-19T13:01:38;9.90;;;9.00;;
35056;SDS011;21241;51.828;19.574;2023-03-19T13:04:13;9.50;;;8.80;;
35056;SDS011;21241;51.828;19.574;2023-03-19T13:09:42;9.60;;;8.90;;
35056;SDS011;21241;51.828;19.574;2023-03-19T13:12:16;10.00;;;9.20;;
35056;SDS011;21241;51.828;19.574;2023-03-19T13:15:07;8.90;;;8.20;;
35056;SDS011;21241;51.828;19.574;2023-03-19T13:20:30;9.90;;;9.10;;
35056;SDS011;21241;51.828;19.574;2023-03-19T13:23:24;9.60;;;8.80;;
35056;SDS011;21241;51.828;19.574;2023-03-19T13:25:58;9.80;;;8.90;;
35056;SDS011;21241;51.828;19.574;2023-03-19T13:28:30;9.40;;;8.60;;
35056;SDS011;21241;51.828;19.574;2023-03-19T13:34:06;9.30;;;8.40;;
35056;SDS011;21241;51.828;19.574;2023-03-19T13:36:57;10.30;;;9.30;;
35056;SDS011;21241;51.828;19.574;2023-03-19T13:39:28;9.00;;;8.30;;
35056;SDS011;21241;51.828;19.574;2023-03-19T13:42:05;8.70;;;7.90;;
35056;SDS011;21241;51.828;19.574;2023-03-19T13:44:52;9.90;;;9.10;;
35056;SDS011;21241;51.828;19.574;2023-03-19T13:57:59;10.10;;;9.20;;
35056;SDS011;21241;51.828;19.574;2023-03-19T14:01:04;10.30;;;9.50;;
35056;SDS011;21241;51.828;19.574;2023-03-19T14:03:55;10.60;;;9.70;;
35056;SDS011;21241;51.828;19.574;2023-03-19T14:12:19;10.80;;;9.80;;
35056;SDS011;21241;51.828;19.574;2023-03-19T14:14:56;9.50;;;8.70;;
35056;SDS011;21241;51.828;19.574;2023-03-19T14:17:32;9.70;;;9.00;;
35056;SDS011;21241;51.828;19.574;2023-03-19T14:22:40;10.20;;;9.20;;
35056;SDS011;21241;51.828;19.574;2023-03-19T14:25:24;10.20;;;9.30;;
35056;SDS011;21241;51.828;19.574;2023-03-19T14:27:54;10.50;;;9.70;;
35056;SDS011;21241;51.828;19.574;2023-03-19T14:30:28;10.00;;;9.20;;
35056;SDS011;21241;51.828;19.574;2023-03-19T14:33:00;10.20;;;9.30;;
35056;SDS011;21241;51.828;19.574;2023-03-19T14:35:31;9.60;;;8.80;;
35056;SDS011;21241;51.828;19.574;2023-03-19T14:38:10;9.50;;;8.70;;
35056;SDS011;21241;51.828;19.574;2023-03-19T14:40:43;9.60;;;8.80;;
35056;SDS011;21241;51.828;19.574;2023-03-19T14:43:20;9.90;;;9.10;;
35056;SDS011;21241;51.828;19.574;2023-03-19T14:46:01;10.10;;;9.20;;
35056;SDS011;21241;51.828;19.574;2023-03-19T14:51:39;9.90;;;9.00;;
35056;SDS011;21241;51.828;19.574;2023-03-19T14:54:29;10.00;;;9.20;;
35056;SDS011;21241;51.828;19.574;2023-03-19T14:57:07;9.90;;;9.10;;
35056;SDS011;21241;51.828;19.574;2023-03-19T14:59:43;9.90;;;9.10;;
35056;SDS011;21241;51.828;19.574;2023-03-19T15:02:57;10.90;;;9.40;;
35056;SDS011;21241;51.828;19.574;2023-03-19T15:05:17;11.00;;;10.10;;
35056;SDS011;21241;51.828;19.574;2023-03-19T15:07:57;10.70;;;9.70;;
35056;SDS011;21241;51.828;19.574;2023-03-19T15:10:28;11.10;;;10.00;;
35056;SDS011;21241;51.828;19.574;2023-03-19T15:13:06;10.80;;;9.50;;
35056;SDS011;21241;51.828;19.574;2023-03-19T15:15:50;11.20;;;10.30;;
35056;SDS011;21241;51.828;19.574;2023-03-19T15:18:29;10.50;;;9.60;;
35056;SDS011;21241;51.828;19.574;2023-03-19T15:20:57;11.30;;;10.40;;
35056;SDS011;21241;51.828;19.574;2023-03-19T15:23:25;9.90;;;9.20;;
35056;SDS011;21241;51.828;19.574;2023-03-19T15:25:59;10.20;;;9.30;;
35056;SDS011;21241;51.828;19.574;2023-03-19T15:28:29;10.20;;;9.30;;
35056;SDS011;21241;51.828;19.574;2023-03-19T15:31:00;9.50;;;8.70;;
35056;SDS011;21241;51.828;19.574;2023-03-19T15:33:50;9.00;;;8.30;;
35056;SDS011;21241;51.828;19.574;2023-03-19T15:36:26;10.30;;;9.40;;
35056;SDS011;21241;51.828;19.574;2023-03-19T15:38:59;10.10;;;9.20;;
35056;SDS011;21241;51.828;19.574;2023-03-19T15:41:34;10.60;;;9.70;;
35056;SDS011;21241;51.828;19.574;2023-03-19T15:44:07;9.80;;;9.00;;
35056;SDS011;21241;51.828;19.574;2023-03-19T15:46:38;10.30;;;9.40;;
35056;SDS011;21241;51.828;19.574;2023-03-19T15:49:09;10.00;;;9.10;;
35056;SDS011;21241;51.828;19.574;2023-03-19T15:51:39;9.30;;;8.60;;
35056;SDS011;21241;51.828;19.574;2023-03-19T15:54:07;10.30;;;9.30;;
35056;SDS011;21241;51.828;19.574;2023-03-19T15:56:35;9.80;;;9.00;;
35056;SDS011;21241;51.828;19.574;2023-03-19T15:59:03;9.80;;;8.90;;
35056;SDS011;21241;51.828;19.574;2023-03-19T16:01:31;9.20;;;8.40;;
35056;SDS011;21241;51.828;19.574;2023-03-19T16:04:00;9.40;;;8.50;;
35056;SDS011;21241;51.828;19.574;2023-03-19T16:06:31;9.90;;;9.00;;
35056;SDS011;21241;51.828;19.574;2023-03-19T16:09:20;10.00;;;9.10;;
35056;SDS011;21241;51.828;19.574;2023-03-19T16:11:50;10.10;;;9.00;;
35056;SDS011;21241;51.828;19.574;2023-03-19T16:17:11;9.90;;;9.10;;
35056;SDS011;21241;51.828;19.574;2023-03-19T16:22:23;11.20;;;10.10;;
35056;SDS011;21241;51.828;19.574;2023-03-19T16:24:54;10.00;;;9.20;;
35056;SDS011;21241;51.828;19.574;2023-03-19T16:27:56;9.80;;;8.90;;
35056;SDS011;21241;51.828;19.574;2023-03-19T16:30:18;10.50;;;9.50;;
35056;SDS011;21241;51.828;19.574;2023-03-19T16:33:00;10.10;;;9.10;;